createdAt,value
2022-11-29T00:01:23.512Z,96275.03
2022-11-29T00:03:50.684Z,96264.06
2022-11-29T00:06:19.003Z,96268.38
2022-11-29T00:08:46.097Z,96270.75
2022-11-29T00:11:41.770Z,96268.47
2022-11-29T00:14:09.498Z,96264.91
2022-11-29T00:16:36.064Z,96270.75
2022-11-29T00:19:03.120Z,96268.13
2022-11-29T00:21:29.769Z,96270.88
2022-11-29T00:23:56.225Z,96265.75
2022-11-29T00:26:22.705Z,96269.44
2022-11-29T00:28:49.244Z,96265.00
2022-11-29T00:31:16.470Z,96270.88
2022-11-29T00:33:43.094Z,96258.81
2022-11-29T00:36:10.312Z,96261.44
2022-11-29T00:38:37.142Z,96260.84
2022-11-29T00:41:03.834Z,96260.84
2022-11-29T00:43:30.293Z,96260.84
2022-11-29T00:45:56.990Z,96265.22
2022-11-29T00:48:23.551Z,96261.44
2022-11-29T00:50:50.016Z,96252.97
2022-11-29T00:53:16.602Z,96263.78
2022-11-29T00:55:49.603Z,96260.22
2022-11-29T00:58:16.094Z,96259.16
2022-11-29T01:00:42.839Z,96261.66
2022-11-29T01:03:09.568Z,96263.34
2022-11-29T01:05:36.241Z,96264.28
2022-11-29T01:08:02.793Z,96259.75
2022-11-29T01:10:29.260Z,96263.34
2022-11-29T01:12:56.344Z,96265.84
2022-11-29T01:15:22.836Z,96261.78
2022-11-29T01:17:49.565Z,96256.41
2022-11-29T01:20:16.757Z,96258.09
2022-11-29T01:22:43.247Z,96263.47
2022-11-29T01:25:11.838Z,96259.75
2022-11-29T01:27:38.478Z,96264.19
2022-11-29T01:30:06.222Z,96257.84
2022-11-29T01:32:32.843Z,96261.31
2022-11-29T01:34:59.339Z,96259.16
2022-11-29T01:37:25.882Z,96253.78
2022-11-29T01:39:52.399Z,96258.53
2022-11-29T01:42:18.879Z,96254.13
2022-11-29T01:44:46.186Z,96260.94
2022-11-29T01:47:12.958Z,96263.56
2022-11-29T01:49:41.725Z,96257.47
2022-11-29T01:52:14.481Z,96263.56
2022-11-29T01:54:44.006Z,96259.53
2022-11-29T01:57:11.088Z,96258.91
2022-11-29T01:59:41.743Z,96254.97
2022-11-29T02:02:31.553Z,96256.75
2022-11-29T02:04:59.343Z,96254.97
2022-11-29T02:07:26.092Z,96265.22
2022-11-29T02:09:52.630Z,96261.03
2022-11-29T02:12:23.945Z,96258.41
2022-11-29T02:14:59.262Z,96264.41
2022-11-29T02:17:40.275Z,96257.13
2022-11-29T02:20:25.347Z,96259.75
2022-11-29T02:23:10.634Z,96249.25
2022-11-29T02:25:42.976Z,96256.91
2022-11-29T02:28:26.713Z,96257.25
2022-11-29T02:30:53.227Z,96258.31
2022-11-29T02:33:22.831Z,96254.84
2022-11-29T02:35:52.126Z,96258.31
2022-11-29T02:38:34.682Z,96253.03
2022-11-29T02:41:18.878Z,96255.69
2022-11-29T02:43:51.533Z,96259.03
2022-11-29T02:46:41.132Z,96261.56
2022-11-29T02:49:39.951Z,96265.22
2022-11-29T02:52:15.369Z,96265.34
2022-11-29T02:54:47.678Z,96268.09
2022-11-29T02:57:14.280Z,96270.84
2022-11-29T02:59:59.109Z,96267.88
2022-11-29T03:02:33.648Z,96270.84
2022-11-29T03:05:00.141Z,96266.66
2022-11-29T03:07:55.990Z,96274.28
2022-11-29T03:10:25.607Z,96267.16
2022-11-29T03:12:52.945Z,96269.97
2022-11-29T03:15:34.280Z,96269.28
2022-11-29T03:18:15.857Z,96264.97
2022-11-29T03:20:55.373Z,96271.16
2022-11-29T03:23:36.682Z,96270.09
2022-11-29T03:26:09.121Z,96273.59
2022-11-29T03:28:41.586Z,96266.53
2022-11-29T03:31:26.857Z,96277.88
2022-11-29T03:33:53.365Z,96283.03
2022-11-29T03:36:29.031Z,96281.84
2022-11-29T03:38:58.892Z,96278.72
2022-11-29T03:41:28.551Z,96292.69
2022-11-29T03:44:03.089Z,96281.34
2022-11-29T03:46:42.966Z,96289.09
2022-11-29T03:49:23.062Z,96293.53
2022-11-29T03:51:56.229Z,96286.72
2022-11-29T03:54:26.181Z,96296.38
2022-11-29T03:56:52.833Z,96290.69
2022-11-29T03:59:28.292Z,96291.38
2022-11-29T04:02:03.975Z,96289.22
2022-11-29T04:04:36.598Z,96299.63
2022-11-29T04:07:08.955Z,96293.63
2022-11-29T04:09:54.148Z,96305.19
2022-11-29T04:12:39.477Z,96301.84
2022-11-29T04:15:15.486Z,96293.84
2022-11-29T04:17:48.443Z,96296.47
2022-11-29T04:20:18.073Z,96301.03
2022-11-29T04:23:03.233Z,96301.97
2022-11-29T04:25:32.823Z,96306.97
2022-11-29T04:28:08.534Z,96306.69
2022-11-29T04:30:47.060Z,96310.28
2022-11-29T04:33:32.040Z,96311.72
2022-11-29T04:36:21.527Z,96315.31
2022-11-29T04:39:06.855Z,96320.94
2022-11-29T04:41:39.219Z,96325.38
2022-11-29T04:44:05.653Z,96320.13
2022-11-29T04:46:41.414Z,96318.81
2022-11-29T04:49:17.059Z,96317.16
2022-11-29T04:51:43.565Z,96320.00
2022-11-29T04:54:25.103Z,96325.47
2022-11-29T04:56:51.619Z,96332.63
2022-11-29T04:59:21.275Z,96330.84
2022-11-29T05:02:09.963Z,96323.78
2022-11-29T05:04:46.745Z,96331.78
2022-11-29T05:07:34.987Z,96330.34
2022-11-29T05:10:01.540Z,96334.41
2022-11-29T05:12:33.018Z,96338.72
2022-11-29T05:15:21.764Z,96330.84
2022-11-29T05:18:06.933Z,96336.63
2022-11-29T05:20:39.242Z,96334.41
2022-11-29T05:23:05.712Z,96342.19
2022-11-29T05:25:41.410Z,96336.94
2022-11-29T05:28:23.011Z,96343.88
2022-11-29T05:31:04.596Z,96342.19
2022-11-29T05:33:49.873Z,96344.69
2022-11-29T05:36:16.713Z,96337.78
2022-11-29T05:38:49.454Z,96341.25
2022-11-29T05:41:22.071Z,96347.13
2022-11-29T05:44:21.004Z,96351.47
2022-11-29T05:46:47.655Z,96345.75
2022-11-29T05:49:14.143Z,96347.53
2022-11-29T05:51:53.881Z,96346.59
2022-11-29T05:54:29.709Z,96349.47
2022-11-29T05:56:59.396Z,96358.78
2022-11-29T05:59:30.249Z,96355.66
2022-11-29T06:02:17.957Z,96355.84
2022-11-29T06:04:59.436Z,96359.84
2022-11-29T06:07:45.415Z,96358.47
2022-11-29T06:10:13.932Z,96361.72
2022-11-29T06:12:42.777Z,96359.09
2022-11-29T06:15:34.384Z,96359.00
2022-11-29T06:18:00.985Z,96364.91
2022-11-29T06:20:30.281Z,96367.72
2022-11-29T06:23:15.669Z,96364.25
2022-11-29T06:26:04.024Z,96373.56
2022-11-29T06:29:01.687Z,96368.13
2022-11-29T06:31:34.009Z,96366.66
2022-11-29T06:34:09.745Z,96373.69
2022-11-29T06:36:41.144Z,96370.25
2022-11-29T06:39:09.180Z,96363.31
2022-11-29T06:41:35.841Z,96370.47
2022-11-29T06:44:02.719Z,96377.38
2022-11-29T06:46:35.390Z,96378.13
2022-11-29T06:49:08.067Z,96371.28
2022-11-29T06:51:48.547Z,96374.56
2022-11-29T06:54:22.111Z,96377.25
2022-11-29T06:56:51.786Z,96386.94
2022-11-29T06:59:30.761Z,96391.34
2022-11-29T07:02:02.150Z,96386.94
2022-11-29T07:04:28.671Z,96393.00
2022-11-29T07:06:55.481Z,96394.94
2022-11-29T07:09:25.572Z,96396.91
2022-11-29T07:11:52.254Z,96398.25
2022-11-29T07:14:18.919Z,96399.13
2022-11-29T07:16:57.842Z,96397.31
2022-11-29T07:19:30.549Z,96410.16
2022-11-29T07:22:14.640Z,96408.34
2022-11-29T07:24:41.198Z,96412.66
2022-11-29T07:27:12.885Z,96412.78
2022-11-29T07:29:57.552Z,96424.34
2022-11-29T07:32:34.566Z,96417.28
2022-11-29T07:35:03.939Z,96419.09
2022-11-29T07:37:30.439Z,96421.31
2022-11-29T07:40:03.320Z,96421.06
2022-11-29T07:42:48.553Z,96418.22
2022-11-29T07:45:27.695Z,96424.22
2022-11-29T07:47:54.379Z,96421.72
2022-11-29T07:50:21.395Z,96426.72
2022-11-29T07:52:48.351Z,96433.56
2022-11-29T07:55:19.027Z,96424.63
2022-11-29T07:57:45.973Z,96431.75
2022-11-29T08:00:12.980Z,96430.59
2022-11-29T08:02:39.724Z,96435.66
2022-11-29T08:05:06.599Z,96434.59
2022-11-29T08:07:36.837Z,96435.94
2022-11-29T08:10:04.812Z,96436.78
2022-11-29T08:12:31.451Z,96437.81
2022-11-29T08:14:57.956Z,96431.00
2022-11-29T08:17:25.875Z,96438.69
2022-11-29T08:19:52.599Z,96440.22
2022-11-29T08:22:19.121Z,96441.19
2022-11-29T08:24:45.898Z,96430.56
2022-11-29T08:27:12.640Z,96433.09
2022-11-29T08:29:39.192Z,96438.13
2022-11-29T08:32:06.439Z,96424.25
2022-11-29T08:34:32.951Z,96434.66
2022-11-29T08:36:59.534Z,96424.66
2022-11-29T08:39:26.080Z,96422.44
2022-11-29T08:41:52.620Z,96430.91
2022-11-29T08:44:19.156Z,96428.81
2022-11-29T08:47:04.441Z,96427.75
2022-11-29T08:49:31.054Z,96424.75
2022-11-29T08:52:17.552Z,96433.50
2022-11-29T08:54:44.820Z,96431.00
2022-11-29T08:57:38.458Z,96438.66
2022-11-29T08:59:58.299Z,96436.53
2022-11-29T09:02:24.918Z,96428.53
2022-11-29T09:04:51.475Z,96429.59
2022-11-29T09:07:18.076Z,96434.97
2022-11-29T09:09:44.656Z,96440.53
2022-11-29T09:12:11.221Z,96444.03
2022-11-29T09:14:37.753Z,96444.53
2022-11-29T09:17:04.450Z,96446.81
2022-11-29T09:19:30.998Z,96442.28
2022-11-29T09:21:57.558Z,96434.81
2022-11-29T09:24:24.120Z,96438.66
2022-11-29T09:26:50.758Z,96441.78
2022-11-29T09:29:17.718Z,96444.41
2022-11-29T09:31:45.355Z,96439.75
2022-11-29T09:34:15.412Z,96446.25
2022-11-29T09:36:44.165Z,96445.97
2022-11-29T09:39:12.522Z,96442.75
2022-11-29T09:41:41.117Z,96440.47
2022-11-29T09:44:13.796Z,96438.84
2022-11-29T09:46:43.092Z,96436.66
2022-11-29T09:49:24.592Z,96443.13
2022-11-29T09:52:04.158Z,96441.53
2022-11-29T09:54:41.362Z,96442.88
2022-11-29T09:57:10.862Z,96437.63
2022-11-29T09:59:41.131Z,96436.44
2022-11-29T10:02:10.777Z,96431.69
2022-11-29T10:04:40.491Z,96432.75
2022-11-29T10:07:13.116Z,96426.78
2022-11-29T10:09:46.075Z,96428.09
2022-11-29T10:12:15.678Z,96428.22
2022-11-29T10:15:02.208Z,96419.47
2022-11-29T10:17:38.696Z,96416.03
2022-11-29T10:20:19.717Z,96415.66
2022-11-29T10:22:49.799Z,96418.41
2022-11-29T10:25:23.276Z,96410.88
2022-11-29T10:27:50.075Z,96406.81
2022-11-29T10:30:18.081Z,96400.34
2022-11-29T10:32:46.482Z,96400.13
2022-11-29T10:35:14.898Z,96395.59
2022-11-29T10:37:41.607Z,96396.22
2022-11-29T10:40:13.119Z,96397.34
2022-11-29T10:42:48.716Z,96396.06
2022-11-29T10:45:23.406Z,96396.91
2022-11-29T10:47:51.119Z,96392.22
2022-11-29T10:50:19.478Z,96394.78
2022-11-29T10:52:46.075Z,96385.31
2022-11-29T10:55:14.733Z,96390.78
2022-11-29T10:58:00.097Z,96393.31
2022-11-29T11:00:26.958Z,96400.03
2022-11-29T11:02:53.531Z,96398.34
2022-11-29T11:05:26.113Z,96398.09
2022-11-29T11:07:58.901Z,96394.66
2022-11-29T11:10:30.864Z,96400.47
2022-11-29T11:13:01.597Z,96411.38
2022-11-29T11:15:30.112Z,96401.78
2022-11-29T11:18:05.171Z,96407.63
2022-11-29T11:20:32.805Z,96400.38
2022-11-29T11:23:01.031Z,96400.97
2022-11-29T11:25:34.728Z,96401.94
2022-11-29T11:28:21.356Z,96405.19
2022-11-29T11:30:55.685Z,96405.38
2022-11-29T11:33:34.252Z,96404.81
2022-11-29T11:36:03.615Z,96407.16
2022-11-29T11:38:30.231Z,96411.81
2022-11-29T11:41:04.460Z,96406.00
2022-11-29T11:43:31.843Z,96412.31
2022-11-29T11:45:58.615Z,96407.50
2022-11-29T11:48:25.318Z,96399.88
2022-11-29T11:50:53.233Z,96413.13
2022-11-29T11:53:36.723Z,96413.75
2022-11-29T11:56:08.180Z,96407.69
2022-11-29T11:58:37.981Z,96406.38
2022-11-29T12:01:13.734Z,96408.88
2022-11-29T12:03:49.528Z,96413.25
2022-11-29T12:06:38.444Z,96414.69
2022-11-29T12:09:29.439Z,96413.00
2022-11-29T12:12:14.610Z,96424.69
2022-11-29T12:14:53.295Z,96427.34
2022-11-29T12:17:20.473Z,96421.84
2022-11-29T12:19:53.039Z,96421.72
2022-11-29T12:22:24.479Z,96421.94
2022-11-29T12:24:55.166Z,96415.13
2022-11-29T12:27:21.753Z,96413.25
2022-11-29T12:29:48.442Z,96414.69
2022-11-29T12:32:20.809Z,96416.44
2022-11-29T12:34:53.323Z,96403.44
2022-11-29T12:37:25.856Z,96407.75
2022-11-29T12:39:57.489Z,96408.34
2022-11-29T12:42:26.821Z,96405.72
2022-11-29T12:45:00.489Z,96409.41
2022-11-29T12:47:51.547Z,96405.94
2022-11-29T12:50:21.516Z,96403.78
2022-11-29T12:52:50.838Z,96403.97
2022-11-29T12:55:24.682Z,96409.88
2022-11-29T12:58:07.207Z,96416.06
2022-11-29T13:00:40.817Z,96420.63
2022-11-29T13:03:13.601Z,96411.88
2022-11-29T13:05:52.278Z,96417.88
2022-11-29T13:08:37.341Z,96424.44
2022-11-29T13:11:22.837Z,96424.19
2022-11-29T13:14:40.989Z,96421.69
2022-11-29T13:17:01.816Z,96419.69
2022-11-29T13:19:28.321Z,96418.94
2022-11-29T13:22:13.807Z,96421.69
2022-11-29T13:24:42.861Z,96428.28
2022-11-29T13:27:14.521Z,96428.41
2022-11-29T13:29:41.081Z,96428.75
2022-11-29T13:32:14.445Z,96430.41
2022-11-29T13:34:47.142Z,96436.00
2022-11-29T13:37:27.810Z,96436.41
2022-11-29T13:39:58.277Z,96438.41
2022-11-29T13:42:46.879Z,96441.28
2022-11-29T13:45:21.360Z,96438.88
2022-11-29T13:47:58.802Z,96434.56
2022-11-29T13:50:44.651Z,96441.59
2022-11-29T13:53:13.999Z,96445.91
2022-11-29T13:55:44.488Z,96448.78
2022-11-29T13:58:32.354Z,96444.34
2022-11-29T14:01:05.883Z,96444.22
2022-11-29T14:03:38.703Z,96444.84
2022-11-29T14:06:10.169Z,96453.41
2022-11-29T14:09:02.526Z,96447.97
2022-11-29T14:11:26.675Z,96457.69
2022-11-29T14:14:02.297Z,96454.53
2022-11-29T14:16:43.970Z,96453.09
2022-11-29T14:19:10.477Z,96460.22
2022-11-29T14:21:55.921Z,96462.88
2022-11-29T14:24:35.461Z,96467.28
2022-11-29T14:27:08.003Z,96474.56
2022-11-29T14:29:54.116Z,96482.81
2022-11-29T14:32:45.761Z,96478.03
2022-11-29T14:35:12.904Z,96481.06
2022-11-29T14:37:48.753Z,96466.22
2022-11-29T14:40:24.247Z,96458.22
2022-11-29T14:42:51.206Z,96449.28
2022-11-29T14:45:22.853Z,96450.34
2022-11-29T14:47:49.728Z,96462.31
2022-11-29T14:50:28.524Z,96471.66
2022-11-29T14:52:55.039Z,96466.03
2022-11-29T14:55:21.593Z,96470.47
2022-11-29T14:57:48.268Z,96458.78
2022-11-29T15:00:19.313Z,96459.13
2022-11-29T15:02:49.154Z,96465.44
2022-11-29T15:05:18.871Z,96462.06
2022-11-29T15:07:52.803Z,96454.53
2022-11-29T15:10:22.403Z,96456.31
2022-11-29T15:12:49.446Z,96460.84
2022-11-29T15:15:15.957Z,96460.34
2022-11-29T15:17:51.918Z,96463.91
2022-11-29T15:20:37.671Z,96462.03
2022-11-29T15:23:12.600Z,96462.03
2022-11-29T15:25:46.518Z,96466.22
2022-11-29T15:28:20.035Z,96459.78
2022-11-29T15:30:47.340Z,96474.50
2022-11-29T15:33:24.047Z,96457.78
2022-11-29T15:35:51.807Z,96460.31
2022-11-29T15:38:19.159Z,96464.50
2022-11-29T15:40:53.196Z,96458.28
2022-11-29T15:43:26.315Z,96455.63
2022-11-29T15:45:57.456Z,96449.44
2022-11-29T15:48:28.370Z,96447.19
2022-11-29T15:51:13.613Z,96451.25
2022-11-29T15:54:10.099Z,96447.28
2022-11-29T15:56:45.217Z,96448.81
2022-11-29T15:59:32.755Z,96449.03
2022-11-29T16:02:02.518Z,96450.44
2022-11-29T16:04:29.527Z,96455.94
2022-11-29T16:06:56.777Z,96453.41
2022-11-29T16:09:28.031Z,96458.56
2022-11-29T16:11:54.571Z,96462.25
2022-11-29T16:14:23.877Z,96457.31
2022-11-29T16:16:55.088Z,96466.47
2022-11-29T16:19:21.592Z,96460.47
2022-11-29T16:21:58.558Z,96460.41
2022-11-29T16:24:26.459Z,96466.25
2022-11-29T16:26:53.485Z,96464.38
2022-11-29T16:29:21.912Z,96457.44
2022-11-29T16:31:48.592Z,96469.63
2022-11-29T16:34:24.558Z,96467.69
2022-11-29T16:37:05.235Z,96469.63
2022-11-29T16:39:33.312Z,96469.50
2022-11-29T16:42:02.840Z,96473.81
2022-11-29T16:44:41.558Z,96468.69
2022-11-29T16:47:12.493Z,96481.91
2022-11-29T16:49:39.040Z,96480.25
2022-11-29T16:52:23.238Z,96482.00
2022-11-29T16:54:51.127Z,96475.81
2022-11-29T16:57:18.205Z,96462.56
2022-11-29T16:59:44.861Z,96478.03
2022-11-29T17:02:11.648Z,96480.66
2022-11-29T17:04:38.199Z,96476.34
2022-11-29T17:07:07.176Z,96478.22
2022-11-29T17:09:34.377Z,96479.91
2022-11-29T17:12:01.968Z,96487.50
2022-11-29T17:14:29.265Z,96478.69
2022-11-29T17:16:55.906Z,96481.19
2022-11-29T17:19:24.023Z,96483.69
2022-11-29T17:21:51.420Z,96487.72
2022-11-29T17:24:19.142Z,96489.84
2022-11-29T17:26:46.118Z,96494.16
2022-11-29T17:29:14.056Z,96489.59
2022-11-29T17:31:41.534Z,96500.88
2022-11-29T17:34:08.085Z,96494.88
2022-11-29T17:36:34.675Z,96506.13
2022-11-29T17:39:02.169Z,96505.38
2022-11-29T17:41:29.152Z,96508.94
2022-11-29T17:43:56.814Z,96519.38
2022-11-29T17:46:26.040Z,96519.25
2022-11-29T17:48:53.102Z,96524.41
2022-11-29T17:51:49.976Z,96522.59
2022-11-29T17:54:08.624Z,96532.91
2022-11-29T17:56:35.283Z,96535.53
2022-11-29T17:59:02.702Z,96535.63
2022-11-29T18:01:30.925Z,96542.69
2022-11-29T18:03:59.495Z,96537.53
2022-11-29T18:06:27.276Z,96535.75
2022-11-29T18:08:55.033Z,96540.16
2022-11-29T18:11:22.921Z,96531.41
2022-11-29T18:13:50.016Z,96539.22
2022-11-29T18:16:18.688Z,96535.63
2022-11-29T18:18:45.676Z,96535.63
2022-11-29T18:21:12.581Z,96539.22
2022-11-29T18:23:40.641Z,96535.84
2022-11-29T18:26:11.552Z,96537.53
2022-11-29T18:28:39.159Z,96541.94
2022-11-29T18:31:13.026Z,96542.78
2022-11-29T18:33:40.326Z,96546.13
2022-11-29T18:36:10.119Z,96548.03
2022-11-29T18:38:37.112Z,96541.94
2022-11-29T18:41:22.445Z,96545.41
2022-11-29T18:43:49.275Z,96541.22
2022-11-29T18:46:17.123Z,96544.91
2022-11-29T18:48:44.612Z,96546.69
2022-11-29T18:51:12.415Z,96542.28
2022-11-29T18:53:39.421Z,96548.34
2022-11-29T18:56:11.155Z,96541.56
2022-11-29T18:58:38.291Z,96541.63
2022-11-29T19:01:09.118Z,96539.00
2022-11-29T19:03:36.741Z,96550.56
2022-11-29T19:06:07.253Z,96549.03
2022-11-29T19:08:33.797Z,96548.28
2022-11-29T19:11:20.566Z,96550.78
2022-11-29T19:13:47.854Z,96548.28
2022-11-29T19:16:16.061Z,96549.97
2022-11-29T19:18:42.991Z,96554.34
2022-11-29T19:21:16.714Z,96555.22
2022-11-29T19:23:44.078Z,96561.19
2022-11-29T19:26:14.723Z,96557.84
2022-11-29T19:28:42.138Z,96555.50
2022-11-29T19:31:09.633Z,96559.53
2022-11-29T19:33:37.116Z,96564.06
2022-11-29T19:36:23.880Z,96564.06
2022-11-29T19:38:53.870Z,96568.34
2022-11-29T19:41:25.451Z,96572.53
2022-11-29T19:43:52.675Z,96573.47
2022-11-29T19:46:27.150Z,96568.22
2022-11-29T19:48:55.037Z,96569.91
2022-11-29T19:51:22.416Z,96568.03
2022-11-29T19:53:51.917Z,96568.75
2022-11-29T19:56:20.489Z,96571.38
2022-11-29T19:58:47.151Z,96576.84
2022-11-29T20:01:14.831Z,96578.22
2022-11-29T20:03:42.086Z,96568.66
2022-11-29T20:06:09.600Z,96573.06
2022-11-29T20:08:36.808Z,96577.25
2022-11-29T20:11:07.438Z,96572.88
2022-11-29T20:13:34.056Z,96567.63
2022-11-29T20:16:04.876Z,96564.88
2022-11-29T20:18:34.592Z,96571.81
2022-11-29T20:21:08.311Z,96570.78
2022-11-29T20:23:35.374Z,96571.72
2022-11-29T20:26:02.039Z,96572.53
2022-11-29T20:28:28.599Z,96573.28
2022-11-29T20:30:55.263Z,96568.97
2022-11-29T20:33:24.092Z,96571.59
2022-11-29T20:35:55.604Z,96576.03
2022-11-29T20:38:35.367Z,96568.97
2022-11-29T20:41:19.551Z,96573.41
2022-11-29T20:43:46.053Z,96575.16
2022-11-29T20:46:12.777Z,96569.38
2022-11-29T20:48:39.567Z,96569.59
2022-11-29T20:51:06.271Z,96566.97
2022-11-29T20:53:42.961Z,96566.03
2022-11-29T20:56:10.288Z,96566.75
2022-11-29T20:58:37.094Z,96567.72
2022-11-29T21:01:04.357Z,96564.88
2022-11-29T21:03:31.078Z,96570.13
2022-11-29T21:06:00.899Z,96567.50
2022-11-29T21:08:27.560Z,96564.25
2022-11-29T21:10:54.458Z,96566.97
2022-11-29T21:13:22.461Z,96569.72
2022-11-29T21:15:49.285Z,96573.06
2022-11-29T21:18:26.050Z,96564.25
2022-11-29T21:21:01.635Z,96565.94
2022-11-29T21:23:31.351Z,96573.91
2022-11-29T21:26:00.811Z,96571.41
2022-11-29T21:28:32.155Z,96574.13
2022-11-29T21:30:58.880Z,96573.91
2022-11-29T21:33:25.595Z,96570.53
2022-11-29T21:35:54.836Z,96560.03
2022-11-29T21:38:23.167Z,96569.72
2022-11-29T21:40:49.721Z,96570.53
2022-11-29T21:43:16.272Z,96577.47
2022-11-29T21:45:43.012Z,96568.78
2022-11-29T21:48:29.491Z,96568.88
2022-11-29T21:50:56.852Z,96572.22
2022-11-29T21:53:23.755Z,96572.00
2022-11-29T21:55:55.278Z,96570.44
2022-11-29T21:58:21.842Z,96577.69
2022-11-29T22:00:48.448Z,96572.56
2022-11-29T22:03:14.994Z,96569.06
2022-11-29T22:05:41.501Z,96577.69
2022-11-29T22:08:08.048Z,96576.66
2022-11-29T22:10:34.563Z,96574.97
2022-11-29T22:13:01.087Z,96574.53
2022-11-29T22:15:28.183Z,96577.50
2022-11-29T22:17:54.807Z,96576.53
2022-11-29T22:20:21.473Z,96581.59
2022-11-29T22:22:48.660Z,96567.59
2022-11-29T22:25:15.532Z,96573.06
2022-11-29T22:27:42.036Z,96571.16
2022-11-29T22:30:08.752Z,96574.44
2022-11-29T22:32:35.280Z,96568.25
2022-11-29T22:35:01.805Z,96559.53
2022-11-29T22:37:28.371Z,96564.69
2022-11-29T22:39:54.919Z,96561.94
2022-11-29T22:42:21.534Z,96560.16
2022-11-29T22:44:48.321Z,96558.38
2022-11-29T22:47:15.097Z,96553.97
2022-11-29T22:49:41.672Z,96556.38
2022-11-29T22:52:08.244Z,96557.94
2022-11-29T22:54:34.792Z,96559.53
2022-11-29T22:57:01.316Z,96550.91
2022-11-29T22:59:27.886Z,96551.88
2022-11-29T23:01:54.432Z,96551.88
2022-11-29T23:04:21.013Z,96550.16
2022-11-29T23:06:47.572Z,96551.00
2022-11-29T23:09:16.582Z,96551.00
2022-11-29T23:11:44.557Z,96558.81
2022-11-29T23:14:11.333Z,96555.94
2022-11-29T23:16:37.963Z,96565.81
2022-11-29T23:19:04.567Z,96561.31
2022-11-29T23:21:32.651Z,96560.66
2022-11-29T23:24:01.002Z,96556.28
2022-11-29T23:26:36.519Z,96563.09
2022-11-29T23:29:04.025Z,96563.81
2022-11-29T23:31:30.806Z,96566.56
2022-11-29T23:33:57.597Z,96566.56
2022-11-29T23:36:24.126Z,96562.34
2022-11-29T23:38:50.677Z,96560.47
2022-11-29T23:41:17.440Z,96563.81
2022-11-29T23:43:44.102Z,96556.81
2022-11-29T23:46:13.529Z,96559.63
2022-11-29T23:48:40.100Z,96557.75
2022-11-29T23:51:06.690Z,96556.69
2022-11-29T23:53:33.333Z,96543.44
2022-11-29T23:56:04.759Z,96540.72
2022-11-29T23:58:32.002Z,96534.63
